Home > Products > Valid Products > TAF

000
FTUS44 KFWD 031459 AAA
TAFFTW
TAF AMD
KFTW 031459Z 0315/0412 36006KT P6SM SKC
     FM040300 02005KT P6SM VCSH BKN080
     FM040600 28005KT P6SM SCT100
     FM040900 31004KT P6SM SKC=



000
FTUS44 KFWD 031459 AAA
TAFACT
TAF AMD
KACT 031459Z 0315/0412 36006KT P6SM SKC
     FM040500 03005KT P6SM BKN100
     FM040900 27005KT P6SM SCT100=



000
FTUS44 KFWD 031459 AAA
TAFDFW
TAF AMD
KDFW 031459Z 0315/0418 36006KT P6SM SKC
     FM040300 02005KT P6SM VCSH BKN080
     FM040600 28005KT P6SM SCT100
     FM040900 31004KT P6SM SKC
     FM041600 34010KT P6SM SKC=



000
FTUS44 KFWD 031135
TAFFTW
TAF
KFTW 031135Z 0312/0412 36006KT P6SM SKC
     FM040300 02005KT P6SM VCSH BKN080
     FM040600 28005KT P6SM SCT100
     FM040900 31004KT P6SM SKC=



000
FTUS44 KFWD 031135
TAFDFW
TAF
KDFW 031135Z 0312/0418 36006KT P6SM SKC
     FM040300 02005KT P6SM VCSH BKN080
     FM040600 28005KT P6SM SCT100
     FM040900 31004KT P6SM SKC
     FM041600 34010KT P6SM SKC=



000
FTUS44 KFWD 031135
TAFACT
TAF
KACT 031135Z 0312/0412 35005KT P6SM SKC
     FM040500 03005KT P6SM BKN100
     FM040900 27005KT P6SM SCT100=



000
FTUS44 KFWD 030904 AAA
TAFACT
TAF AMD
KACT 030904Z 0309/0406 35005KT P6SM SKC
     FM040200 34005KT P6SM SCT100=



000
FTUS44 KFWD 030904 AAA
TAFDFW
TAF AMD
KDFW 030904Z 0309/0412 35006KT P6SM SKC
     FM040100 33005KT P6SM BKN100
     FM040900 29004KT P6SM SKC=



000
FTUS44 KFWD 030904 AAA
TAFFTW
TAF AMD
KFTW 030904Z 0309/0406 01004KT P6SM SKC
     FM040100 33004KT P6SM BKN100=



000
FTUS44 KFWD 030530
TAFFTW
TAF
KFTW 030530Z 0306/0406 01004KT P6SM SKC
     FM040100 33004KT P6SM BKN100=



000
FTUS44 KFWD 030530
TAFDFW
TAF
KDFW 030530Z 0306/0412 01006KT P6SM SKC
     FM040100 33005KT P6SM BKN100
     FM040900 29004KT P6SM SKC=



000
FTUS44 KFWD 030530
TAFACT
TAF
KACT 030530Z 0306/0406 35005KT P6SM SKC
     FM040200 34005KT P6SM SCT100=



000
FTUS44 KFWD 030300 AAA
TAFDFW
TAF AMD
KDFW 030300Z 0303/0406 35005KT P6SM SKC=



000
FTUS44 KFWD 030300 AAA
TAFFTW
TAF AMD
KFTW 030300Z 0303/0324 02004KT P6SM SKC=



000
FTUS44 KFWD 030300 AAA
TAFACT
TAF AMD
KACT 030300Z 0303/0324 36006KT P6SM SCT100=



000
FTUS44 KFWD 022335
TAFACT
TAF
KACT 022335Z 0300/0324 36010KT P6SM BKN045
     FM030300 36006KT P6SM FEW050=



000
FTUS44 KFWD 022335
TAFFTW
TAF
KFTW 022335Z 0300/0324 36009KT P6SM BKN045
     FM030400 36007KT P6SM FEW040=



000
FTUS44 KFWD 022335
TAFDFW
TAF
KDFW 022335Z 0300/0406 35010KT P6SM BKN045
     FM030400 35007KT P6SM FEW040=



000
FTUS44 KFWD 022335
TAFACT
TAF
KACT 022335Z 0300/0324 36010KT P6SM BKN045
     FM030300 36006KT P6SM FEW050=



000
FTUS44 KFWD 022335
TAFFTW
TAF
KFTW 022335Z 0300/0324 36009KT P6SM BKN045
     FM030400 36007KT P6SM FEW040=



000
FTUS44 KFWD 022105 AAA
TAFACT
TAF AMD
KACT 022105Z 0221/0318 34012KT P6SM BKN035 BKN100
      TEMPO 0221/0301 -RA
     FM030100 35007KT P6SM SCT100=



000
FTUS44 KFWD 022105 AAB
TAFDFW
TAF AMD
KDFW 022105Z 0221/0324 34013KT P6SM BKN035 BKN120 BKN250
     FM030100 35007KT P6SM SCT040=



000
FTUS44 KFWD 022105 AAB
TAFFTW
TAF AMD
KFTW 022105Z 0221/0318 33012KT P6SM BKN040 BKN120 BKN250
     FM030100 35007KT P6SM SCT040=



000
FTUS44 KFWD 022105 AAB
TAFFTW
TAF AMD
KFTW 022105Z 0221/0318 33012KT P6SM BKN040 BKN120 BKN250
     FM030100 35007KT P6SM SCT040=



000
FTUS44 KFWD 022105 AAA
TAFACT
TAF AMD
KACT 022105Z 0221/0318 34012KT P6SM BKN035 BKN100
      TEMPO 0221/0301 -RA
     FM030100 35007KT P6SM SCT100=



000
FTUS44 KFWD 022105 AAB
TAFDFW
TAF AMD
KDFW 022105Z 0221/0324 34013KT P6SM BKN035 BKN120 BKN250
     FM030100 35007KT P6SM SCT040=



000
FTUS44 KFWD 021928 AAA
TAFFTW
TAF AMD
KFTW 021928Z 0219/0318 34011KT P6SM BKN035 BKN120
     FM030000 35007KT P6SM SCT040=



000
FTUS44 KFWD 021928 AAA
TAFDFW
TAF AMD
KDFW 021928Z 0219/0324 34013KT P6SM BKN035 BKN120
     FM030000 35007KT P6SM SCT040=



000
FTUS44 KFWD 021928 AAA
TAFDFW
TAF AMD
KDFW 021928Z 0219/0324 34013KT P6SM BKN035 BKN120
     FM030000 35007KT P6SM SCT040=



000
FTUS44 KFWD 021928 AAA
TAFFTW
TAF AMD
KFTW 021928Z 0219/0318 34011KT P6SM BKN035 BKN120
     FM030000 35007KT P6SM SCT040=



000
FTUS44 KFWD 021725 CCA
TAFDFW
TAF COR
KDFW 021725Z 0218/0324 35013KT P6SM SCT025 BKN100
      TEMPO 0218/0221 -RA BKN025 BKN100
     FM030000 35007KT P6SM SKC=



000
FTUS44 KFWD 021725 CCA
TAFFTW
TAF COR
KFTW 021725Z 0218/0318 34011KT P6SM SCT025 BKN100
      TEMPO 0218/0221 -RA BKN025 BKN100
     FM030000 35007KT P6SM SKC=



000
FTUS44 KFWD 021722
TAFFTW
TAF
KFTW 021722Z 0218/0318 34011KT P6SM BKN100
      TEMPO 0218/0221 -RA BKN025 BKN100
     FM030000 35007KT P6SM SKC=



000
FTUS44 KFWD 021722
TAFACT
TAF
KACT 021722Z 0218/0318 34013KT P6SM SCT020 BKN100
      TEMPO 0218/0221 -SHRA BKN020 BKN100
     FM030000 35007KT P6SM SKC=



000
FTUS44 KFWD 021722
TAFDFW
TAF
KDFW 021722Z 0218/0324 35013KT P6SM BKN100
      TEMPO 0218/0221 -RA BKN025 BKN100
     FM030000 35007KT P6SM SKC=



000
FTUS44 KFWD 021503 AAB
TAFACT
TAF AMD
KACT 021503Z 0215/0312 35014KT P6SM -SHRA VCTS SCT020 BKN050CB
      TEMPO 0215/0218 4SM TSRA BKN010 OVC050CB
     FM021800 35012KT P6SM BKN100
     FM030000 35007KT P6SM SKC=



000
FTUS44 KFWD 021503 AAB
TAFDFW
TAF AMD
KDFW 021503Z 0215/0318 34013KT P6SM OVC100
      TEMPO 0215/0218 -RA FEW015 SCT050 OVC100
     FM030000 35007KT P6SM SKC=



000
FTUS44 KFWD 021503 AAB
TAFFTW
TAF AMD
KFTW 021503Z 0215/0312 34013KT P6SM OVC100
      TEMPO 0215/0218 -RA FEW015 SCT080 OVC100
     FM030000 35007KT P6SM SKC=



000
FTUS44 KFWD 021503 AAB
TAFFTW
TAF AMD
KFTW 021503Z 0215/0312 34013KT P6SM OVC100
      TEMPO 0215/0218 -RA FEW015 SCT080 OVC100
     FM030000 35007KT P6SM SKC=



000
FTUS44 KFWD 021503 AAB
TAFDFW
TAF AMD
KDFW 021503Z 0215/0318 34013KT P6SM OVC100
      TEMPO 0215/0218 -RA FEW015 SCT050 OVC100
     FM030000 35007KT P6SM SKC=



000
FTUS44 KFWD 021503 AAB
TAFACT
TAF AMD
KACT 021503Z 0215/0312 35014KT P6SM -SHRA VCTS SCT020 BKN050CB
      TEMPO 0215/0218 4SM TSRA BKN010 OVC050CB
     FM021800 35012KT P6SM BKN100
     FM030000 35007KT P6SM SKC=



000
FTUS44 KFWD 021226 AAA
TAFDFW
TAF AMD
KDFW 021226Z 0212/0318 34015KT P6SM OVC100
      TEMPO 0212/0214 -RA SCT020 OVC100
     FM030000 35007KT P6SM SKC=



000
FTUS44 KFWD 021226 AAA
TAFACT
TAF AMD
KACT 021226Z 0212/0312 35017KT P6SM -SHRA SCT020 OVC040
      TEMPO 0213/0216 4SM -TSRA BKN020CB
     FM021700 34014KT P6SM BKN100
     FM030000 35007KT P6SM SKC=



000
FTUS44 KFWD 021226 AAA
TAFFTW
TAF AMD
KFTW 021226Z 0212/0312 34015KT P6SM OVC100
      TEMPO 0212/0214 -RA SCT020 OVC100
     FM030000 35007KT P6SM SKC=



000
FTUS44 KFWD 021120
TAFACT
TAF
KACT 021120Z 0212/0312 35017KT P6SM VCSH SCT020 OVC040
      TEMPO 0213/0216 4SM -TSRA BKN020CB
     FM021700 34014KT P6SM BKN100
     FM030000 35007KT P6SM SKC=



000
FTUS44 KFWD 021120
TAFFTW
TAF
KFTW 021120Z 0212/0312 34012KT P6SM SHRA VCTS SCT015 BKN050CB
      TEMPO 0212/0214 4SM -RA BKN015
     FM021400 34016KT P6SM BKN100
     FM030000 35007KT P6SM SKC=



000
FTUS44 KFWD 021120
TAFDFW
TAF
KDFW 021120Z 0212/0318 34012KT P6SM SHRA VCTS SCT015 BKN050CB
      TEMPO 0212/0214 4SM -RA BKN015
     FM021400 34016KT P6SM BKN100
     FM030000 35007KT P6SM SKC=



000
FTUS44 KFWD 020900 AAB
TAFFTW
TAF AMD
KFTW 020900Z 0209/0306 35011KT P6SM VCSH BKN060
      TEMPO 0209/0212 3SM TSRA BKN025CB
     FM021400 34016KT P6SM BKN100
     FM030000 35007KT P6SM FEW150=



000
FTUS44 KFWD 020900 AAA
TAFACT
TAF AMD
KACT 020900Z 0209/0306 35010KT P6SM BKN040
     FM021600 34014KT P6SM BKN100
     FM030000 35007KT P6SM FEW150=



000
FTUS44 KFWD 020900 AAA
TAFDFW
TAF AMD
KDFW 020900Z 0209/0312 35011KT P6SM VCSH BKN060
      TEMPO 0209/0212 3SM TSRA BKN025CB
     FM021400 34016KT P6SM BKN100
     FM030000 35007KT P6SM FEW150=



000
FTUS44 KFWD 020824 AAA
TAFFTW
TAF AMD
KFTW 020824Z 0208/0306 35011KT P6SM VCSH BKN060
      TEMPO 0208/0211 3SM TSRA BKN025CB
     FM021400 34016KT P6SM BKN100
     FM030000 35007KT P6SM FEW150=



000
FTUS44 KFWD 020520
TAFDFW
TAF
KDFW 020520Z 0206/0312 01011KT P6SM SCT080
     FM020800 35011KT P6SM VCSH BKN050
     FM021500 34016KT P6SM BKN100
     FM030000 35007KT P6SM FEW150=



000
FTUS44 KFWD 020520
TAFFTW
TAF
KFTW 020520Z 0206/0306 01011KT P6SM SCT080
     FM020800 35011KT P6SM VCSH BKN050
     FM021400 34016KT P6SM BKN100
     FM030000 35007KT P6SM FEW150=



000
FTUS44 KFWD 020520
TAFACT
TAF
KACT 020520Z 0206/0306 01009KT P6SM BKN050
     FM020900 35011KT P6SM VCSH BKN045
     FM021600 34014KT P6SM BKN100
     FM030000 35007KT P6SM FEW150=



000
FTUS44 KFWD 020520
TAFACT
TAF
KACT 020520Z 0206/0306 01009KT P6SM BKN050
     FM020900 35011KT P6SM VCSH BKN045
     FM021600 34014KT P6SM BKN100
     FM030000 35007KT P6SM FEW150=



000
FTUS44 KFWD 020520
TAFDFW
TAF
KDFW 020520Z 0206/0312 01011KT P6SM SCT080
     FM020800 35011KT P6SM VCSH BKN050
     FM021500 34016KT P6SM BKN100
     FM030000 35007KT P6SM FEW150=



000
FTUS44 KFWD 020520
TAFFTW
TAF
KFTW 020520Z 0206/0306 01011KT P6SM SCT080
     FM020800 35011KT P6SM VCSH BKN050
     FM021400 34016KT P6SM BKN100
     FM030000 35007KT P6SM FEW150=



000
FTUS44 KFWD 020305 AAA
TAFDFW
TAF AMD
KDFW 020305Z 0203/0306 01011KT P6SM SCT060
     FM020600 35011KT P6SM VCSH BKN040
     FM021300 34015KT P6SM BKN100
     FM030200 35007KT P6SM FEW150=



000
FTUS44 KFWD 020305 AAA
TAFACT
TAF AMD
KACT 020305Z 0203/0224 02010KT P6SM SCT060
     FM020600 36013KT P6SM VCSH BKN040
     FM021400 01009KT P6SM BKN100=



000
FTUS44 KFWD 020305 AAA
TAFFTW
TAF AMD
KFTW 020305Z 0203/0224 01011KT P6SM SCT060
     FM020600 35011KT P6SM VCSH BKN040
     FM021300 34015KT P6SM BKN100=



000
FTUS44 KFWD 020305 AAA
TAFDFW
TAF AMD
KDFW 020305Z 0203/0306 01011KT P6SM SCT060
     FM020600 35011KT P6SM VCSH BKN040
     FM021300 34015KT P6SM BKN100
     FM030200 35007KT P6SM FEW150=



000
FTUS44 KFWD 020305 AAA
TAFACT
TAF AMD
KACT 020305Z 0203/0224 02010KT P6SM SCT060
     FM020600 36013KT P6SM VCSH BKN040
     FM021400 01009KT P6SM BKN100=



000
FTUS44 KFWD 020305 AAA
TAFFTW
TAF AMD
KFTW 020305Z 0203/0224 01011KT P6SM SCT060
     FM020600 35011KT P6SM VCSH BKN040
     FM021300 34015KT P6SM BKN100=



000
FTUS44 KFWD 012321
TAFFTW
TAF
KFTW 012321Z 0200/0224 01012KT P6SM SCT060
     FM020400 35011KT P6SM VCSH BKN040
     FM021100 34015KT P6SM BKN100=



000
FTUS44 KFWD 012321
TAFDFW
TAF
KDFW 012321Z 0200/0306 02012KT P6SM SCT060
     FM020400 35011KT P6SM VCSH BKN040
     FM021100 34015KT P6SM BKN100
     FM030200 35007KT P6SM FEW150=



000
FTUS44 KFWD 012321
TAFACT
TAF
KACT 012321Z 0200/0224 02014KT P6SM SCT060
     FM020200 36013KT P6SM VCSH BKN040
     FM021200 01009KT P6SM BKN100=



000
FTUS44 KFWD 012321
TAFFTW
TAF
KFTW 012321Z 0200/0224 01012KT P6SM SCT060
     FM020400 35011KT P6SM VCSH BKN040
     FM021100 34015KT P6SM BKN100=



000
FTUS44 KFWD 012321
TAFDFW
TAF
KDFW 012321Z 0200/0306 02012KT P6SM SCT060
     FM020400 35011KT P6SM VCSH BKN040
     FM021100 34015KT P6SM BKN100
     FM030200 35007KT P6SM FEW150=



000
FTUS44 KFWD 012321
TAFACT
TAF
KACT 012321Z 0200/0224 02014KT P6SM SCT060
     FM020200 36013KT P6SM VCSH BKN040
     FM021200 01009KT P6SM BKN100=



000
FTUS44 KFWD 012052 AAB
TAFFTW
TAF AMD
KFTW 012052Z 0121/0218 35015KT P6SM SCT060
     FM020300 35011KT P6SM VCSH BKN050
     FM021100 34015KT P6SM BKN100=



000
FTUS44 KFWD 012052 AAA
TAFDFW
TAF AMD
KDFW 012052Z 0121/0224 01012KT P6SM SCT060
     FM020300 35011KT P6SM VCSH BKN025
     FM021100 34015KT P6SM BKN100=



000
FTUS44 KFWD 012052 AAA
TAFACT
TAF AMD
KACT 012052Z 0121/0218 01016KT P6SM SCT060
     FM020400 36013KT P6SM VCSH BKN025
     FM021200 01009KT P6SM BKN100=



000
FTUS44 KFWD 011936 AAA
TAFFTW
TAF AMD
KFTW 011936Z 0120/0218 35015KT P6SM SKC
     FM020300 35011KT P6SM VCSH BKN050
     FM021100 34015KT P6SM BKN100=



000
FTUS44 KFWD 011936 AAA
TAFFTW
TAF AMD
KFTW 011936Z 0120/0218 35015KT P6SM SKC
     FM020300 35011KT P6SM VCSH BKN050
     FM021100 34015KT P6SM BKN100=



000
FTUS44 KFWD 011720
TAFACT
TAF
KACT 011720Z 0118/0218 02016KT P6SM SKC
     FM020400 36013KT P6SM VCSH BKN025
     FM021200 01009KT P6SM BKN100=



000
FTUS44 KFWD 011720
TAFDFW
TAF
KDFW 011720Z 0118/0224 01016KT P6SM SKC
     FM020300 35011KT P6SM VCSH BKN025
     FM021100 34015KT P6SM BKN100=



000
FTUS44 KFWD 011720
TAFFTW
TAF
KFTW 011720Z 0118/0218 01015KT P6SM SKC
     FM020300 35011KT P6SM VCSH BKN050
     FM021100 34015KT P6SM BKN100=



000
FTUS44 KFWD 011459 AAB
TAFFTW
TAF AMD
KFTW 011459Z 0115/0212 01015KT P6SM SKC
     FM020300 35011KT P6SM VCSH BKN050
     FM020900 34015KT P6SM BKN050=



000
FTUS44 KFWD 011459 AAA
TAFDFW
TAF AMD
KDFW 011459Z 0115/0218 01016KT P6SM SKC
     FM020300 35011KT P6SM VCSH BKN050
     FM020900 34015KT P6SM BKN050=



000
FTUS44 KFWD 011459 AAB
TAFACT
TAF AMD
KACT 011459Z 0115/0212 02016KT P6SM SKC
     FM020500 36013KT P6SM VCSH BKN040=



000
FTUS44 KFWD 011338 AAA
TAFFTW
TAF AMD
KFTW 011338Z 0114/0212 36015KT P6SM SKC
     FM020300 35011KT P6SM VCSH BKN050
     FM020900 34015KT P6SM BKN050=



000
FTUS44 KFWD 011338 AAA
TAFFTW
TAF AMD
KFTW 011338Z 0114/0212 36015KT P6SM SKC
     FM020300 35011KT P6SM VCSH BKN050
     FM020900 34015KT P6SM BKN050=



000
FTUS44 KFWD 011200 AAA
TAFACT
TAF AMD
KACT 011200Z 0112/0212 34006KT 5SM BR SCT015
      TEMPO 0112/0115 P6SM NSW BKN015
     FM011500 02011KT P6SM SCT030
     FM020500 36013KT P6SM VCSH BKN040=



000
FTUS44 KFWD 011200 AAA
TAFACT
TAF AMD
KACT 011200Z 0112/0212 34006KT 5SM BR SCT015
      TEMPO 0112/0115 P6SM NSW BKN015
     FM011500 02011KT P6SM SCT030
     FM020500 36013KT P6SM VCSH BKN040=



000
FTUS44 KFWD 011144
TAFACT
TAF
KACT 011144Z 0112/0212 34006KT P6SM SCT015
      TEMPO 0112/0114 BKN015
     FM011600 02011KT P6SM SCT030
     FM020500 36013KT P6SM VCSH BKN040=



000
FTUS44 KFWD 011144
TAFACT
TAF
KACT 011144Z 0112/0212 34006KT P6SM SCT015
      TEMPO 0112/0114 BKN015
     FM011600 02011KT P6SM SCT030
     FM020500 36013KT P6SM VCSH BKN040=



000
FTUS44 KFWD 011142
TAFFTW
TAF
KFTW 011142Z 0112/0212 01012KT P6SM SKC
     FM020300 35011KT P6SM VCSH BKN050
     FM020900 34015KT P6SM BKN050=



000
FTUS44 KFWD 011142
TAFDFW
TAF
KDFW 011142Z 0112/0218 01012KT P6SM SKC
     FM020300 35011KT P6SM VCSH BKN050
     FM020900 34015KT P6SM BKN050=



000
FTUS44 KFWD 011142
TAFDFW
TAF
KDFW 011142Z 0112/0218 01012KT P6SM SKC
     FM020300 35011KT P6SM VCSH BKN050
     FM020900 34015KT P6SM BKN050=



000
FTUS44 KFWD 011142
TAFFTW
TAF
KFTW 011142Z 0112/0212 01012KT P6SM SKC
     FM020300 35011KT P6SM VCSH BKN050
     FM020900 34015KT P6SM BKN050=



000
FTUS44 KFWD 010910 AAA
TAFDFW
TAF AMD
KDFW 010910Z 0109/0212 36008KT P6SM SKC
     FM011400 02015KT P6SM SCT250
     FM020700 35011KT P6SM VCSH BKN050=



000
FTUS44 KFWD 010910 AAA
TAFDFW
TAF AMD
KDFW 010910Z 0109/0212 36008KT P6SM SKC
     FM011400 02015KT P6SM SCT250
     FM020700 35011KT P6SM VCSH BKN050=



000
FTUS44 KFWD 010910 AAA
TAFACT
TAF AMD
KACT 010910Z 0109/0206 03006KT P6SM FEW035
      TEMPO 0112/0115 BKN025
     FM011600 02011KT P6SM BKN040
     FM020500 36013KT P6SM VCSH BKN040=



000
FTUS44 KFWD 010910 AAA
TAFFTW
TAF AMD
KFTW 010910Z 0109/0206 36008KT P6SM SKC
     FM011400 02015KT P6SM SCT250=



000
FTUS44 KFWD 010910 AAA
TAFACT
TAF AMD
KACT 010910Z 0109/0206 03006KT P6SM FEW035
      TEMPO 0112/0115 BKN025
     FM011600 02011KT P6SM BKN040
     FM020500 36013KT P6SM VCSH BKN040=



000
FTUS44 KFWD 010910 AAA
TAFFTW
TAF AMD
KFTW 010910Z 0109/0206 36008KT P6SM SKC
     FM011400 02015KT P6SM SCT250=



000
FTUS44 KFWD 010520
TAFFTW
TAF
KFTW 010520Z 0106/0206 01008KT P6SM SKC
     FM011400 02015KT P6SM SCT250=



000
FTUS44 KFWD 010520
TAFDFW
TAF
KDFW 010520Z 0106/0212 01008KT P6SM SKC
     FM011400 02015KT P6SM SCT250
     FM020700 35011KT P6SM VCSH BKN050=



000
FTUS44 KFWD 010520
TAFACT
TAF
KACT 010520Z 0106/0206 01006KT P6SM FEW030
      TEMPO 0112/0115 BKN025
     FM011600 02011KT P6SM BKN040
     FM020500 36013KT P6SM VCSH BKN040=



000
FTUS44 KFWD 010250 AAA
TAFDFW
TAF AMD
KDFW 010250Z 0103/0206 35007KT P6SM FEW035
     FM010600 03008KT P6SM SKC
     FM011400 02015KT P6SM SCT250
     FM020100 03010KT P6SM BKN060=



000
FTUS44 KFWD 010250 AAA
TAFDFW
TAF AMD
KDFW 010250Z 0103/0206 35007KT P6SM FEW035
     FM010600 03008KT P6SM SKC
     FM011400 02015KT P6SM SCT250
     FM020100 03010KT P6SM BKN060=



000
FTUS44 KFWD 010250 AAA
TAFACT
TAF AMD
KACT 010250Z 0103/0124 01006KT P6SM FEW030
      TEMPO 0112/0115 BKN025
     FM011700 02013KT P6SM BKN040=



000
FTUS44 KFWD 010250 AAA
TAFFTW
TAF AMD
KFTW 010250Z 0103/0124 35007KT P6SM FEW035
     FM010600 03008KT P6SM SKC
     FM011400 02015KT P6SM SCT250=



000
FTUS44 KFWD 302323
TAFACT
TAF
KACT 302323Z 0100/0124 01006KT P6SM FEW030
      TEMPO 0112/0115 BKN025
     FM011700 02013KT P6SM BKN040=



000
FTUS44 KFWD 302323
TAFFTW
TAF
KFTW 302323Z 0100/0124 33009KT P6SM FEW035
     FM010600 03008KT P6SM SKC
     FM011400 02015KT P6SM SCT250=



000
FTUS44 KFWD 302323
TAFDFW
TAF
KDFW 302323Z 0100/0206 33009KT P6SM FEW035
     FM010600 03008KT P6SM SKC
     FM011400 02015KT P6SM SCT250
     FM020100 03010KT P6SM BKN060=



000
FTUS44 KFWD 302323
TAFACT
TAF
KACT 302323Z 0100/0124 01006KT P6SM FEW030
      TEMPO 0112/0115 BKN025
     FM011700 02013KT P6SM BKN040=



000
FTUS44 KFWD 302323
TAFDFW
TAF
KDFW 302323Z 0100/0206 33009KT P6SM FEW035
     FM010600 03008KT P6SM SKC
     FM011400 02015KT P6SM SCT250
     FM020100 03010KT P6SM BKN060=



000
FTUS44 KFWD 302323
TAFFTW
TAF
KFTW 302323Z 0100/0124 33009KT P6SM FEW035
     FM010600 03008KT P6SM SKC
     FM011400 02015KT P6SM SCT250=



000
FTUS44 KFWD 302104 AAC
TAFACT
TAF AMD
KACT 302104Z 3021/0118 32006KT P6SM SCT020
     FM010600 02004KT P6SM SKC
     FM011200 01005KT P6SM BKN025=



000
FTUS44 KFWD 302104 AAC
TAFDFW
TAF AMD
KDFW 302104Z 3021/0124 33009KT P6SM SCT025 BKN100
     FM010600 03008KT P6SM SCT250
     FM011400 02014KT P6SM OVC100=



000
FTUS44 KFWD 302104 AAC
TAFFTW
TAF AMD
KFTW 302104Z 3021/0118 34009KT P6SM SCT025 BKN100
     FM010600 03007KT P6SM SCT250
     FM011400 03012KT P6SM BKN250=



000
FTUS44 KFWD 302050 AAB
TAFDFW
TAF AMD
KDFW 302050Z 3020/0124 30010KT P6SM BKN027
     FM010000 33010KT P6SM SCT025 BKN100
     FM010600 03008KT P6SM SCT250
     FM011400 02014KT P6SM OVC100=



000
FTUS44 KFWD 302050 AAB
TAFACT
TAF AMD
KACT 302050Z 3020/0118 32006KT P6SM SCT020
     FM010600 02004KT P6SM SKC
     FM011200 01005KT P6SM BKN025=



000
FTUS44 KFWD 302050 AAB
TAFFTW
TAF AMD
KFTW 302050Z 3020/0118 30010KT P6SM OVC023
     FM010000 34010KT P6SM SCT025 BKN100
     FM010600 03007KT P6SM SCT250
     FM011400 03012KT P6SM BKN250=



000
FTUS44 KFWD 302050 AAB
TAFFTW
TAF AMD
KFTW 302050Z 3020/0118 30010KT P6SM OVC023
     FM010000 34010KT P6SM SCT025 BKN100
     FM010600 03007KT P6SM SCT250
     FM011400 03012KT P6SM BKN250=



000
FTUS44 KFWD 302050 AAB
TAFACT
TAF AMD
KACT 302050Z 3020/0118 32006KT P6SM SCT020
     FM010600 02004KT P6SM SKC
     FM011200 01005KT P6SM BKN025=



000
FTUS44 KFWD 302050 AAB
TAFDFW
TAF AMD
KDFW 302050Z 3020/0124 30010KT P6SM BKN027
     FM010000 33010KT P6SM SCT025 BKN100
     FM010600 03008KT P6SM SCT250
     FM011400 02014KT P6SM OVC100=



000
FTUS44 KFWD 301904 AAA
TAFDFW
TAF AMD
KDFW 301904Z 3019/0124 30010KT P6SM BKN025
     FM302100 33010KT P6SM SCT025 BKN100
     FM010600 03008KT P6SM SCT250
     FM011400 02014KT P6SM OVC100=



000
FTUS44 KFWD 301904 AAA
TAFFTW
TAF AMD
KFTW 301904Z 3019/0118 30010KT P6SM OVC020
     FM302100 34010KT P6SM SCT025 BKN100
     FM010600 03007KT P6SM SCT250
     FM011400 03012KT P6SM BKN250=



000
FTUS44 KFWD 301904 AAA
TAFDFW
TAF AMD
KDFW 301904Z 3019/0124 30010KT P6SM BKN025
     FM302100 33010KT P6SM SCT025 BKN100
     FM010600 03008KT P6SM SCT250
     FM011400 02014KT P6SM OVC100=



000
FTUS44 KFWD 301904 AAA
TAFFTW
TAF AMD
KFTW 301904Z 3019/0118 30010KT P6SM OVC020
     FM302100 34010KT P6SM SCT025 BKN100
     FM010600 03007KT P6SM SCT250
     FM011400 03012KT P6SM BKN250=



000
FTUS44 KFWD 301854 AAA
TAFACT
TAF AMD
KACT 301854Z 3019/0118 32010KT P6SM SCT020
     FM010600 02004KT P6SM SKC
     FM011200 01005KT P6SM BKN025=



000
FTUS44 KFWD 301720
TAFFTW
TAF
KFTW 301720Z 3018/0118 32010KT P6SM OVC015
     FM302100 34010KT P6SM SCT025 BKN100
     FM010600 03007KT P6SM SCT250
     FM011400 03012KT P6SM BKN250=



000
FTUS44 KFWD 301720
TAFACT
TAF
KACT 301720Z 3018/0118 32010KT P6SM BKN014
     FM302100 35008KT P6SM SCT025
     FM010600 02004KT P6SM SKC
     FM011200 01005KT P6SM BKN025=



000
FTUS44 KFWD 301720
TAFDFW
TAF
KDFW 301720Z 3018/0124 33010KT P6SM OVC015
     FM302100 33010KT P6SM SCT025 BKN100
     FM010600 03008KT P6SM SCT250
     FM011400 02014KT P6SM OVC100=



000
FTUS44 KFWD 301720
TAFFTW
TAF
KFTW 301720Z 3018/0118 32010KT P6SM OVC015
     FM302100 34010KT P6SM SCT025 BKN100
     FM010600 03007KT P6SM SCT250
     FM011400 03012KT P6SM BKN250=



000
FTUS44 KFWD 301720
TAFACT
TAF
KACT 301720Z 3018/0118 32010KT P6SM BKN014
     FM302100 35008KT P6SM SCT025
     FM010600 02004KT P6SM SKC
     FM011200 01005KT P6SM BKN025=



000
FTUS44 KFWD 301720
TAFDFW
TAF
KDFW 301720Z 3018/0124 33010KT P6SM OVC015
     FM302100 33010KT P6SM SCT025 BKN100
     FM010600 03008KT P6SM SCT250
     FM011400 02014KT P6SM OVC100=



    US Dept of Commerce
    National Oceanic and Atmospheric Administration
    National Weather Service
    1325 East West Highway
    Silver Spring, MD 20910
    Page Author: NWS Internet Services Team
Disclaimer
Information Quality
Credits
Glossary
Privacy Policy
Freedom of Information Act (FOIA)
About Us
Career Opportunities